Latest Weather Observations for Bedout Island

IDW60801

Issued at 10:05 pm WST Monday 28 July 2014 (issued every 30 minutes, with the page automatically refreshed every 10 minutes)

About weather observations | Map of weather stations | Latest weather observations for WA | Other Formats
Station Details ID: 004100 Name: BEDOUT ISLAND Lat: -19.59 Lon: 119.10 Height: 8.6 m
Data from the previous 72 hours. | See also: Recent months for locations in Western Australia
Date/Time
WST
Temp
°C
App
Temp
°C
Dew
Point
Rel
Hum
%
Delta-T
°C
Wind Press
QNH
hPa
Press
MSL
hPa
Rain
since 9 am
mm
Dir
 
Spd
km/h
Gust
km/h
Spd
kts
Gust
kts
28/10:00pm 21.5 22.1 17.7 79 2.3 SW 11 13 6 7 1017.5 - -
28/09:30pm 21.1 20.0 15.4 70 3.4 SW 15 17 8 9 1017.5 - -
28/09:00pm 21.4 21.7 18.0 81 2.1 W 13 15 7 8 1017.5 1017.4 -
28/08:30pm 21.5 21.8 17.1 76 2.7 SSW 11 13 6 7 1017.3 - -
28/08:00pm 21.7 22.9 17.3 76 2.7 WSW 7 9 4 5 1017.2 - -
28/07:30pm 21.7 22.0 17.1 75 2.8 SSW 11 11 6 6 1016.9 - -
28/07:00pm 21.5 22.5 16.9 75 2.8 WSW 7 9 4 5 1016.7 - -
28/06:30pm 21.8 22.5 17.0 74 2.9 SW 9 13 5 7 1016.4 - -
28/06:00pm 21.8 22.5 17.0 74 2.9 WSW 9 11 5 6 1016.2 1016.1 -
28/05:30pm 22.8 23.5 17.0 70 3.6 WSW 9 11 5 6 1015.9 - -
28/05:00pm 23.9 24.3 16.2 62 4.7 WSW 9 9 5 5 1015.7 - -
28/04:30pm 24.3 24.5 15.8 59 5.1 SW 9 11 5 6 1015.6 - -
28/04:00pm 24.7 24.8 15.6 57 5.5 SW 9 11 5 6 1015.6 - -
28/03:30pm 25.0 24.2 12.9 47 7.0 SSW 9 11 5 6 1015.6 - -
28/03:00pm 25.4 23.9 11.9 43 7.7 SSW 11 13 6 7 1015.8 1015.7 -
28/02:30pm 25.1 23.5 8.6 35 8.9 SSW 7 11 4 6 1016.1 - -
28/02:00pm 25.9 25.2 11.3 40 8.3 ESE 6 7 3 4 1016.5 - -
28/01:30pm 25.4 24.2 10.4 39 8.3 SE 7 9 4 5 1016.8 - -
28/01:00pm 25.0 23.9 10.8 41 7.9 ESE 7 9 4 5 1017.4 - -
28/12:30pm 24.7 23.6 12.0 45 7.2 SE 9 11 5 6 1017.9 - -
28/12:00pm 24.7 23.4 13.6 50 6.5 S 13 17 7 9 1018.3 1018.2 -
28/11:30am 24.7 22.8 13.0 48 6.8 SSE 15 17 8 9 1018.8 - -
28/11:00am 24.9 23.0 13.1 48 6.9 SSE 15 17 8 9 1019.3 - -
28/10:30am 25.1 22.9 13.3 48 6.9 SE 17 19 9 10 1019.8 - -
28/10:00am 25.3 23.2 13.5 48 6.9 SE 17 20 9 11 1020.1 - -
28/09:30am 24.9 23.0 14.1 51 6.4 SE 17 19 9 10 1020.2 - -
28/09:00am 24.5 23.1 14.6 54 5.9 SE 15 19 8 10 1020.0 1019.9 -
28/08:30am 23.8 21.3 13.6 52 5.9 ESE 19 22 10 12 1019.6 - -
28/08:00am 22.9 21.8 15.2 62 4.6 SE 15 19 8 10 1019.3 - -
28/07:30am 21.8 20.7 15.4 67 3.8 ESE 15 20 8 11 1018.9 - -
28/07:00am 20.8 18.9 15.1 70 3.4 ESE 19 20 10 11 1018.5 - -
28/06:30am 20.2 17.1 14.6 70 3.3 SE 24 30 13 16 1017.9 - -
28/06:00am 19.5 17.1 14.3 72 3.0 SE 20 24 11 13 1017.9 1017.8 -
28/05:30am 19.7 16.8 13.9 69 3.3 SSE 22 26 12 14 1017.6 - -
28/05:00am 19.6 16.5 13.5 68 3.5 S 22 26 12 14 1017.2 - -
28/04:30am 19.6 16.3 14.0 70 3.2 S 24 28 13 15 1017.0 - -
28/04:00am 19.8 17.2 14.8 73 2.9 S 22 26 12 14 1017.1 - -
28/03:30am 20.1 17.5 14.9 72 3.0 S 22 24 12 13 1017.3 - -
28/03:00am 20.2 16.9 14.1 68 3.5 S 24 28 13 15 1017.2 1017.1 -
28/02:30am 20.6 17.7 15.2 71 3.2 S 24 28 13 15 1017.3 - -
28/02:00am 21.2 17.4 14.8 67 3.8 SSW 28 33 15 18 1017.3 - -
28/01:30am 21.4 18.1 15.0 67 3.8 SSW 26 30 14 16 1017.4 - -
28/01:00am 21.7 18.6 15.5 68 3.7 SSW 26 30 14 16 1017.8 - -
28/12:30am 21.8 19.2 15.9 69 3.5 SSW 24 28 13 15 1018.1 - -
28/12:00am 21.7 19.2 16.2 71 3.3 SSW 24 26 13 14 1018.3 1018.2 -
 
Date/Time
WST
Temp
°C
App
Temp
°C
Dew
Point
Rel
Hum
%
Delta-T
°C
Wind Press
QNH
hPa
Press
MSL
hPa
Rain
since 9 am
mm
Dir
 
Spd
km/h
Gust
km/h
Spd
kts
Gust
kts
27/11:30pm 21.6 19.3 16.6 73 3.0 SSW 24 28 13 15 1018.4 - -
27/11:00pm 21.5 19.6 15.8 70 3.4 SSW 20 26 11 14 1018.6 - -
27/10:30pm 20.9 20.5 16.3 75 2.8 SSW 13 15 7 8 1018.5 - -
27/10:00pm 21.3 20.7 16.7 75 2.8 SW 15 15 8 8 1018.6 - -
27/09:30pm 21.3 20.6 16.5 74 2.9 SSW 15 15 8 8 1018.6 - -
27/09:00pm 21.1 19.6 15.4 70 3.4 SSW 17 19 9 10 1018.5 1018.4 -
27/08:30pm 20.8 20.7 17.0 79 2.3 SW 13 15 7 8 1018.6 - -
27/08:00pm 20.5 20.4 16.9 80 2.2 SW 13 15 7 8 1018.4 - -
27/07:30pm 20.7 21.0 16.9 79 2.3 WSW 11 13 6 7 1018.2 - -
27/07:00pm 21.1 21.1 16.3 74 2.9 SW 11 11 6 6 1018.0 - -
27/06:30pm 21.8 22.0 14.7 64 4.2 SW 7 15 4 8 1017.8 - -
27/06:00pm 23.4 22.1 10.1 43 7.3 ENE 7 9 4 5 1017.3 1017.2 -
27/05:30pm 23.0 22.7 14.3 58 5.1 ENE 9 11 5 6 1017.1 - -
27/05:00pm 24.2 24.1 14.0 53 6.0 ENE 7 9 4 5 1017.2 - -
27/04:30pm 24.6 24.0 14.7 54 5.9 E 11 13 6 7 1017.0 - -
27/04:00pm 25.2 25.2 15.2 54 6.0 E 9 11 5 6 1016.8 - -
27/03:30pm 25.4 25.0 15.1 53 6.2 E 11 15 6 8 1016.8 - -
27/03:00pm 25.4 24.1 15.7 55 5.9 E 17 17 9 9 1016.7 1016.6 -
27/02:30pm 26.2 24.1 14.6 48 6.9 E 19 20 10 11 1016.7 - -
27/02:00pm 26.1 23.8 14.6 49 6.9 ESE 20 24 11 13 1016.9 - -
27/01:30pm 26.6 24.0 15.0 49 7.0 ESE 22 24 12 13 1017.4 - -
27/01:00pm 25.4 22.5 13.9 49 6.8 ESE 22 26 12 14 1017.8 - -
27/12:30pm 25.2 22.0 14.3 50 6.5 SE 24 28 13 15 1018.4 - -
27/12:00pm 24.7 20.9 14.8 54 5.9 SE 28 32 15 17 1018.8 1018.7 -
27/11:30am 24.2 19.7 13.7 52 6.1 ESE 30 35 16 19 1019.3 - -
27/11:00am 24.4 19.9 13.9 52 6.2 SE 30 33 16 18 1019.9 - -
27/10:30am 24.5 20.7 14.6 54 5.9 ESE 28 32 15 17 1020.3 - -
27/10:00am 23.9 19.7 14.6 56 5.5 ESE 30 33 16 18 1020.8 - -
27/09:30am 23.5 19.1 14.2 56 5.5 ESE 30 32 16 17 1021.0 - -
27/09:00am 22.9 18.4 13.7 56 5.3 ESE 30 33 16 18 1021.0 1020.9 -
27/08:30am 22.2 18.1 12.7 55 5.4 ESE 26 33 14 18 1020.9 - -
27/08:00am 21.7 18.2 13.3 59 4.8 SE 24 28 13 15 1020.4 - -
27/07:30am 21.1 16.7 12.8 59 4.7 SE 28 32 15 17 1020.3 - -
27/07:00am 19.5 15.2 12.0 62 4.2 SSE 26 32 14 17 1019.8 - -
27/06:30am 19.5 15.0 12.7 65 3.8 SSE 28 32 15 17 1019.4 - -
27/06:00am 19.0 15.5 13.4 70 3.2 S 24 28 13 15 1019.2 1019.1 -
27/05:30am 18.7 15.3 12.5 67 3.5 S 22 28 12 15 1019.0 - -
27/05:00am 18.8 15.5 12.8 68 3.4 S 22 26 12 14 1018.7 - -
27/04:30am 18.6 15.4 13.0 70 3.2 S 22 26 12 14 1018.7 - -
27/04:00am 18.8 15.6 13.2 70 3.2 S 22 24 12 13 1018.6 - -
27/03:30am 18.9 15.8 13.5 71 3.1 S 22 26 12 14 1018.6 - -
27/03:00am 18.7 15.6 13.3 71 3.1 S 22 26 12 14 1018.8 1018.7 -
27/02:30am 18.7 14.4 12.2 66 3.6 S 26 30 14 16 1019.0 - -
27/02:00am 18.6 15.5 14.5 77 2.4 S 24 30 13 16 1019.0 - -
27/01:30am 19.9 19.1 15.1 74 2.8 S 13 17 7 9 1018.9 - -
27/01:00am 20.2 19.9 15.4 74 2.8 S 11 13 6 7 1019.2 - -
27/12:30am 20.2 20.3 15.4 74 2.8 S 9 11 5 6 1019.3 - -
27/12:00am 20.2 19.8 15.2 73 2.9 SSE 11 13 6 7 1019.4 1019.3 -
 
Date/Time
WST
Temp
°C
App
Temp
°C
Dew
Point
Rel
Hum
%
Delta-T
°C
Wind Press
QNH
hPa
Press
MSL
hPa
Rain
since 9 am
mm
Dir
 
Spd
km/h
Gust
km/h
Spd
kts
Gust
kts
26/11:30pm 20.1 20.1 15.3 74 2.8 SSE 9 11 5 6 1019.5 - -
26/11:00pm 20.0 20.0 15.2 74 2.8 SSE 9 11 5 6 1019.4 - -
26/10:30pm 20.0 20.0 15.2 74 2.8 SSE 9 11 5 6 1019.5 - -
26/10:00pm 20.5 20.7 15.7 74 2.9 SE 9 11 5 6 1019.5 - -
26/09:30pm 20.8 20.6 15.8 73 3.0 E 11 11 6 6 1019.7 - -
26/09:00pm 20.9 20.1 15.2 70 3.4 E 13 15 7 8 1019.8 1019.7 -
26/08:30pm 20.9 20.0 14.8 68 3.6 E 13 15 7 8 1019.7 - -
26/08:00pm 20.6 20.2 15.2 71 3.2 E 11 13 6 7 1019.5 - -
26/07:30pm 20.3 19.6 15.5 74 2.8 E 13 15 7 8 1019.3 - -
26/07:00pm 20.3 19.6 15.3 73 3.0 E 13 15 7 8 1018.9 - -
26/06:30pm 20.4 19.3 15.4 73 3.0 ESE 15 17 8 9 1018.6 - -
26/06:00pm 20.8 19.3 15.4 71 3.2 E 17 17 9 9 1018.6 1018.5 -
26/05:30pm 21.1 19.6 15.2 69 3.5 E 17 19 9 10 1018.6 - -
26/05:00pm 21.9 20.4 15.3 66 3.9 E 17 17 9 9 1018.5 - -
26/04:30pm 22.5 21.3 15.1 63 4.4 E 15 19 8 10 1018.6 - -
26/04:00pm 22.9 21.2 14.7 60 4.9 E 17 20 9 11 1018.6 - -
26/03:30pm 23.0 20.8 14.3 58 5.1 E 19 20 10 11 1018.5 - -
26/03:00pm 23.3 20.9 14.3 57 5.3 E 20 22 11 12 1018.5 1018.4 -
26/02:30pm 23.9 21.5 14.3 55 5.7 E 20 24 11 13 1018.5 - -
26/02:00pm 24.3 21.9 14.4 54 5.9 E 20 24 11 13 1018.7 - -
26/01:30pm 24.1 20.7 13.6 52 6.1 E 24 28 13 15 1018.9 - -
26/01:00pm 23.6 19.6 12.9 51 6.2 E 26 28 14 15 1019.4 - -
26/12:30pm 23.7 19.7 13.0 51 6.2 E 26 30 14 16 1019.8 - -
26/12:00pm 23.3 19.0 13.2 53 5.8 E 28 33 15 18 1020.3 1020.2 -
26/11:30am 23.2 18.5 13.1 53 5.8 E 30 32 16 17 1020.7 - -
26/11:00am 23.2 18.5 13.1 53 5.8 E 30 35 16 19 1021.0 - -
26/10:30am 23.0 17.6 12.3 51 6.1 E 32 39 17 21 1021.3 - -
26/10:00am 22.9 16.9 12.2 51 6.1 E 35 39 19 21 1021.5 - -
26/09:30am 22.4 16.8 12.1 52 5.8 E 33 39 18 21 1021.3 - -
26/09:00am 22.0 15.9 11.7 52 5.7 E 35 41 19 22 1021.1 1021.0 -
26/08:30am 21.5 15.4 11.8 54 5.4 E 35 41 19 22 1020.9 - -
26/08:00am 20.8 14.2 11.2 54 5.3 E 37 43 20 23 1020.5 - -
26/07:30am 20.3 14.2 11.8 58 4.7 E 35 41 19 22 1020.2 - -
26/07:00am 19.8 12.5 10.2 54 5.2 E 39 44 21 24 1019.7 - -
26/06:30am 19.3 12.1 10.6 57 4.7 E 39 44 21 24 1019.4 - -
26/06:00am 19.4 12.1 10.1 55 5.0 ESE 39 44 21 24 1019.0 1018.9 -
26/05:30am 19.5 11.9 10.5 56 4.9 ESE 41 48 22 26 1018.7 - -
26/05:00am 19.7 12.5 10.7 56 4.9 ESE 39 46 21 25 1018.5 - -
26/04:30am 19.4 12.8 11.2 59 4.5 ESE 37 43 20 23 1018.6 - -
26/04:00am 19.8 12.8 11.3 58 4.7 ESE 39 46 21 25 1018.5 - -
26/03:30am 19.7 12.2 10.9 57 4.8 ESE 41 44 22 24 1018.6 - -
26/03:00am 19.8 13.2 11.3 58 4.7 ESE 37 41 20 22 1018.5 1018.4 -
26/02:30am 19.8 13.1 11.0 57 4.8 ESE 37 44 20 24 1018.5 - -
26/02:00am 19.9 13.8 11.7 59 4.5 ESE 35 41 19 22 1018.6 - -
26/01:30am 20.2 13.1 9.7 51 5.6 ESE 37 43 20 23 1018.5 - -
26/01:00am 19.7 14.2 11.7 60 4.4 SE 32 37 17 20 1018.7 - -
26/12:30am 19.4 14.6 10.4 56 4.8 SSE 26 32 14 17 1018.9 - -
26/12:00am 19.3 15.3 11.8 62 4.1 SE 24 28 13 15 1019.0 1018.9 -
 
Date/Time
WST
Temp
°C
App
Temp
°C
Dew
Point
Rel
Hum
%
Delta-T
°C
Wind Press
QNH
hPa
Press
MSL
hPa
Rain
since 9 am
mm
Dir
 
Spd
km/h
Gust
km/h
Spd
kts
Gust
kts
25/11:30pm 19.1 16.2 12.8 67 3.5 SSE 20 24 11 13 1019.3 - -
25/11:00pm 18.8 15.9 13.0 69 3.3 S 20 24 11 13 1019.6 - -
25/10:30pm 18.9 16.5 12.6 67 3.5 SSE 17 20 9 11 1019.7 - -

Other Formats:

Comma delimited format used in spreadsheet applications
http://www.bom.gov.au/fwo/IDW60801/IDW60801.94310.axf

JavaScript Object Notation format (JSON) in row-major order
http://www.bom.gov.au/fwo/IDW60801/IDW60801.94310.json